Flight Track Log - Related Links

Times and Time Zones

All times are in EDT time to prevent confusion due to time zone crossing. See the N68JV flight status page for this flight to view local times or setup timezone preferences in your user account.

Time Position Orientation Groundspeed Altitude Reporting Facility
EDT Latitude Longitude Course Direction KTS MPH feet Rate Location/Type
Thu 03:39:46 PM 40.8167 -74.1167 270° West 177 204 1,600  Level New York TRACON
Thu 03:40:52 PM 40.8167 -74.2167 270° West 222 255 2,400 1,524 Climbing New York TRACON
Thu 03:41:52 PM 40.8167 -74.3000 270° West 264 304 4,800 2,800 Climbing New York TRACON
Thu 03:42:52 PM 40.8833 -74.3667 323° Northwest 291 335 8,000 3,000 Climbing New York TRACON
Thu 03:43:34 PM 40.9250 -74.3853 341° North 283 326 9,900 3,235 Climbing New York Center
Thu 03:44:34 PM 40.9992 -74.4139 344° North 283 326 13,500 2,975 Climbing New York Center
Thu 03:45:00 PM 41.1333 -74.7166 270° West  Level FlightAware Approximate
Thu 03:45:35 PM 41.0731 -74.4508 339° North 283 326 15,900  Level New York Center
Thu 03:46:35 PM 41.1136 -74.5522 298° West 276 318 16,000 559 Climbing New York Center
Thu 03:47:33 PM 41.1575 -74.6733 296° West 346 398 17,000 1,169 Climbing New York Center
Thu 03:48:33 PM 41.2056 -74.7917 298° West 375 432 18,300 1,388 Climbing New York Center
Thu 03:49:34 PM 41.2458 -74.8908 298° West 380 437 19,800 1,820 Climbing New York Center
Thu 03:50:35 PM 41.3014 -75.0322 298° West 380 437 22,000 1,967 Climbing New York Center
Thu 03:51:36 PM 41.3508 -75.1597 297° West 380 437 23,800 1,613 Climbing New York Center
Thu 03:52:34 PM 41.4022 -75.2903 298° West 386 444 25,200 1,322 Climbing New York Center
Thu 03:53:34 PM 41.4533 -75.4239 297° West 397 457 26,400 1,311 Climbing New York Center
Thu 03:54:33 PM 41.4997 -75.5656 294° West 403 464 27,800 1,361 Climbing New York Center
Thu 03:55:33 PM 41.5417 -75.7072 292° West 414 476 29,100 1,438 Climbing New York Center
Thu 03:56:34 PM 41.5814 -75.8514 290° West 414 476 30,700 1,623 Climbing New York Center
Thu 03:57:35 PM 41.6231 -75.9933 291° West 419 482 32,400 1,636 Climbing New York Center
Thu 03:58:35 PM 41.6608 -76.1325 290° West 414 476 34,000 1,678 Climbing New York Center
Thu 03:59:33 PM 41.7006 -76.2633 292° West 401 461 35,700 1,344 Climbing New York Center
Thu 04:01:47 PM 41.7811 -76.5617 290° West 376 433 38,300 1,113 Climbing Cleveland Center
Thu 04:02:47 PM 41.8150 -76.6933 289° West 376 433 39,300 850 Climbing Cleveland Center
Thu 04:03:47 PM 41.8528 -76.8278 291° West 376 433 40,000 347 Climbing Cleveland Center
Thu 04:04:48 PM 41.8925 -76.9650 291° West 381 438 40,000  Level Cleveland Center
Thu 04:05:47 PM 41.9306 -77.1108 289° West 396 456 40,000  Level Cleveland Center
Thu 04:06:47 PM 41.9703 -77.2567 290° West 410 472 40,000  Level Cleveland Center
Thu 04:07:47 PM 42.0097 -77.4000 290° West 415 478 40,000  Level Cleveland Center
Thu 04:08:47 PM 42.0469 -77.5408 290° West 415 478 40,000  Level Cleveland Center
Thu 04:09:47 PM 42.0861 -77.6872 290° West 415 478 40,000  Level Cleveland Center
Thu 04:10:47 PM 42.1231 -77.8339 289° West 415 478 40,000  Level Cleveland Center
Thu 04:11:47 PM 42.1619 -77.9781 290° West 415 478 40,000  Level Cleveland Center
Thu 04:12:47 PM 42.2006 -78.1250 290° West 420 483 40,000  Level Cleveland Center
Thu 04:13:47 PM 42.2414 -78.2861 289° West 420 483 40,000  Level Cleveland Center
Thu 04:14:47 PM 42.2797 -78.4333 289° West 420 483 40,000  Level Cleveland Center
Thu 04:15:47 PM 42.3178 -78.5783 290° West 420 483 40,000  Level Cleveland Center
Thu 04:16:47 PM 42.3556 -78.7231 289° West 420 483 40,000  Level Cleveland Center
Thu 04:17:47 PM 42.3911 -78.8656 289° West 420 483 40,000  Level Cleveland Center
Thu 04:18:48 PM 42.4222 -78.9969 288° West 415 478 40,000  Level Cleveland Center
Thu 04:19:47 PM 42.4617 -79.1533 289° West 415 478 40,000  Level Cleveland Center
Thu 04:20:47 PM 42.4886 -79.3019 284° West 409 471 40,000  Level Cleveland Center
Thu 04:21:47 PM 42.5089 -79.4536 280° West 409 471 40,000  Level Cleveland Center
Thu 04:22:47 PM 42.5250 -79.6056 278° West 409 471 40,000  Level Cleveland Center
Thu 04:23:47 PM 42.5428 -79.7575 279° West 409 471 40,000  Level Cleveland Center
Thu 04:24:47 PM 42.5625 -79.9122 280° West 409 471 40,000  Level Cleveland Center
Thu 04:25:47 PM 42.5778 -80.0672 278° West 414 476 40,000  Level Cleveland Center
Thu 04:26:47 PM 42.5950 -80.2222 279° West 414 476 40,000  Level Cleveland Center
Thu 04:27:47 PM 42.6122 -80.3744 279° West 423 487 40,000  Level Cleveland Center
Thu 04:28:47 PM 42.6247 -80.5267 276° West 418 481 40,000  Level Cleveland Center
Thu 04:29:47 PM 42.6414 -80.6678 279° West 418 481 40,000  Level Cleveland Center
Thu 04:30:47 PM 42.6581 -80.8203 279° West 418 481 40,000  Level Cleveland Center
Thu 04:31:47 PM 42.6722 -80.9700 277° West 408 470 40,000  Level Cleveland Center
Thu 04:32:47 PM 42.6881 -81.1228 278° West 408 470 40,000  Level Cleveland Center
Thu 04:33:47 PM 42.7019 -81.2753 277° West 408 470 40,000  Level Cleveland Center
Thu 04:34:47 PM 42.7175 -81.4281 278° West 410 472 40,000  Level Cleveland Center
Thu 04:35:47 PM 42.7331 -81.5753 278° West 410 472 40,000  Level Cleveland Center
Thu 04:36:47 PM 42.7464 -81.7311 277° West 416 479 40,000  Level Cleveland Center
Thu 04:37:47 PM 42.7592 -81.8783 277° West 410 472 40,000  Level Cleveland Center
Thu 04:38:47 PM 42.7742 -82.0286 278° West 410 472 40,000  Level Cleveland Center
Thu 04:39:47 PM 42.7889 -82.1817 278° West 410 472 40,000  Level Cleveland Center
Thu 04:41:00 PM 42.7980 -82.3514 274° West  Level FlightAware Approximate
Thu 04:44:47 PM 42.8569 -82.9508 277° West 410 472 40,000  Level Cleveland Center
Thu 04:45:47 PM 42.8683 -83.1017 273° West 405 466 40,000  Level Cleveland Center
Thu 04:46:00 PM 42.8636 -83.1210 273° West  Level Estimated
Thu 04:46:47 PM 42.8817 -83.2522 277° West 405 466 40,000  Level Cleveland Center
Thu 04:47:47 PM 42.8925 -83.4031 276° West 405 466 40,000  Level Cleveland Center
Thu 04:48:00 PM 42.8703 -83.3262 277° West  Level FlightAware Approximate
Thu 04:48:47 PM 42.9056 -83.5539 277° West 405 466 40,000  Level Cleveland Center
Thu 04:49:00 PM 42.8820 -83.4653 277° West  Level FlightAware Approximate
Thu 04:49:47 PM 42.9181 -83.7075 276° West 405 466 40,000  Level Cleveland Center
Thu 04:50:00 PM 42.8937 -83.6045 277° West  Level FlightAware Approximate
Thu 04:51:47 PM 42.9408 -84.0094 276° West 405 466 39,500  Level Cleveland Center
Thu 04:52:47 PM 42.9528 -84.1606 276° West 405 466 38,200 -1,300 Descending Cleveland Center
Thu 04:53:00 PM 42.8969 -84.1004 273° West  Level Estimated
Thu 04:53:47 PM 42.9625 -84.3169 275° West 405 466 36,900  Level Cleveland Center
Thu 04:54:47 PM 42.9706 -84.4481 275° West 405 466 35,800 -1,200 Descending Cleveland Center
Thu 04:55:47 PM 42.9800 -84.6047 275° West 410 472 34,500 -800 Descending Cleveland Center
Thu 04:57:02 PM 43.0000 -84.8164 277° West 416 479 34,000 -219 Descending Chicago Center
Thu 04:58:04 PM 43.0111 -84.9756 276° West 420 483 34,000  Level Chicago Center
Thu 04:59:06 PM 43.0219 -85.1325 275° West 418 481 34,000 -432 Level Chicago Center
Thu 05:00:09 PM 43.0308 -85.2894 274° West 417 480 33,100 -624 Descending Chicago Center
Thu 05:01:11 PM 43.0408 -85.4475 275° West 418 481 32,700 -677 Descending Chicago Center
Thu 05:02:13 PM 43.0503 -85.6064 275° West 421 484 31,700 -1,355 Descending Chicago Center
Thu 05:03:15 PM 43.0619 -85.7997 275° West 427 491 29,900 -1,645 Descending Chicago Center
Thu 05:04:17 PM 43.0719 -85.9553 275° West 434 499 28,300 -1,694 Descending Chicago Center
Thu 05:05:19 PM 43.0814 -86.1194 275° West 452 520 26,400 -2,323 Descending Chicago Center
Thu 05:06:21 PM 43.0922 -86.3203 274° West 450 518 23,500 -2,468 Descending Chicago Center
Thu 05:07:23 PM 43.1014 -86.4842 274° West 437 503 21,300 -2,177 Descending Chicago Center
Thu 05:08:25 PM 43.1086 -86.6403 274° West 416 479 19,000 -2,081 Descending Chicago Center
Thu 05:09:27 PM 43.1172 -86.7925 274° West 405 466 17,000 -1,887 Descending Chicago Center
Thu 05:10:29 PM 43.1233 -86.9336 273° West 377 434 15,100 -1,440 Descending Chicago Center
Thu 05:11:32 PM 43.1311 -87.0739 274° West 373 429 14,000 -816 Descending Chicago Center
Thu 05:12:34 PM 43.1381 -87.2422 273° West 371 427 13,400 -1,065 Descending Chicago Center
Thu 05:13:36 PM 43.1439 -87.3808 273° West 356 410 11,800 -1,500 Descending Chicago Center
Thu 05:14:38 PM 43.1456 -87.5081 271° West 338 389 10,300 -871 Descending Chicago Center
Thu 05:15:40 PM 43.1297 -87.6142 258° West 298 343 10,000 -532 Descending Chicago Center
Thu 05:16:42 PM 43.0975 -87.7033 244° Southwest 267 307 9,200 -1,065 Descending Chicago Center
Thu 05:17:44 PM 43.0647 -87.7886 242° Southwest 255 293 7,800 -1,065 Descending Chicago Center
Thu 05:18:46 PM 42.9936 -87.8122 194° South 225 259 7,000 -387 Descending Chicago Center
Thu 05:19:48 PM 42.9364 -87.8039 174° South 210 242 7,000 -96 Level Chicago Center
Thu 05:20:51 PM 42.8822 -87.7917 171° South 199 229 6,800 -720 Descending Chicago Center
Thu 05:21:53 PM 42.8375 -87.7797 169° South 170 196 5,500 -1,258 Descending Chicago Center
Thu 05:22:55 PM 42.7925 -87.7903 190° South 163 188 4,200 -726 Descending Chicago Center
Thu 05:23:57 PM 42.7378 -87.7972 185° South 166 191 4,000 -339 Descending Chicago Center
Thu 05:24:59 PM 42.7103 -87.8406 229° Southwest 188 216 3,500 -677 Descending Chicago Center
Thu 05:26:01 PM 42.7328 -87.8992 298° West 185 213 2,600 -435 Descending Chicago Center
Thu 05:27:03 PM 42.7731 -87.9175 342° North 181 208 2,600  Level Chicago Center
Thu 05:28:05 PM 42.8072 -87.9197 357° North 143 165 2,600 -97 Level Chicago Center
Thu 05:29:07 PM 42.8506 -87.9103 North 135 155 2,400 -432 Descending Chicago Center
Thu 05:30:10 PM 42.8833 -87.9000 13° North 120 138 1,700 -634 Descending KMKE
Thu 05:31:10 PM 42.9167 -87.9000 360° North 98 113 1,100 -600 Descending KMKE

Login

Don't have an account? Register now (free) for customized features, flight alerts, and more!